sensor_id;sensor_type;location;lat;lon;timestamp;pressure;altitude;pressure_sealevel;temperature;humidity
55757;BME280;41676;44.610;44.078;2023-10-31T00:03:02;101164.81;;;12.88;85.00
55757;BME280;41676;44.610;44.078;2023-10-31T00:08:03;101154.19;;;12.96;84.82
55757;BME280;41676;44.610;44.078;2023-10-31T00:13:04;101160.19;;;13.06;84.90
55757;BME280;41676;44.610;44.078;2023-10-31T00:18:05;101107.09;;;12.54;85.00
55757;BME280;41676;44.610;44.078;2023-10-31T00:23:05;101151.28;;;12.30;85.41
55757;BME280;41676;44.610;44.078;2023-10-31T00:28:06;101151.88;;;11.64;85.95
55757;BME280;41676;44.610;44.078;2023-10-31T00:33:07;101156.69;;;11.25;87.46
55757;BME280;41676;44.610;44.078;2023-10-31T00:38:08;101157.75;;;10.96;88.16
55757;BME280;41676;44.610;44.078;2023-10-31T00:43:09;101156.91;;;10.78;88.88
55757;BME280;41676;44.610;44.078;2023-10-31T00:48:09;101098.84;;;10.27;89.60
55757;BME280;41676;44.610;44.078;2023-10-31T00:53:10;101052.63;;;9.83;90.21
55757;BME280;41676;44.610;44.078;2023-10-31T00:58:11;101163.69;;;10.25;90.46
55757;BME280;41676;44.610;44.078;2023-10-31T01:03:12;101109.47;;;9.90;90.62
55757;BME280;41676;44.610;44.078;2023-10-31T01:08:12;101138.19;;;10.04;90.77
55757;BME280;41676;44.610;44.078;2023-10-31T01:13:13;101133.81;;;10.13;90.86
55757;BME280;41676;44.610;44.078;2023-10-31T01:18:14;101134.94;;;10.20;91.10
55757;BME280;41676;44.610;44.078;2023-10-31T01:23:15;101139.78;;;9.78;91.10
55757;BME280;41676;44.610;44.078;2023-10-31T01:28:15;101146.69;;;9.61;91.69
55757;BME280;41676;44.610;44.078;2023-10-31T01:33:16;101129.81;;;9.33;91.91
55757;BME280;41676;44.610;44.078;2023-10-31T01:38:17;101092.97;;;8.91;92.07
55757;BME280;41676;44.610;44.078;2023-10-31T01:48:32;101147.66;;;9.21;92.84
55757;BME280;41676;44.610;44.078;2023-10-31T01:53:34;101087.97;;;8.78;92.93
55757;BME280;41676;44.610;44.078;2023-10-31T01:58:37;101155.09;;;9.37;92.68
55757;BME280;41676;44.610;44.078;2023-10-31T02:03:37;101152.28;;;9.48;93.33
55757;BME280;41676;44.610;44.078;2023-10-31T02:08:39;101155.47;;;9.03;92.72
55757;BME280;41676;44.610;44.078;2023-10-31T02:13:40;101150.00;;;8.76;93.50
55757;BME280;41676;44.610;44.078;2023-10-31T02:18:41;101145.06;;;8.61;94.05
55757;BME280;41676;44.610;44.078;2023-10-31T02:23:42;101118.88;;;8.58;94.61
55757;BME280;41676;44.610;44.078;2023-10-31T02:28:43;101126.53;;;8.61;94.29
55757;BME280;41676;44.610;44.078;2023-10-31T02:33:44;101151.47;;;8.49;93.93
55757;BME280;41676;44.610;44.078;2023-10-31T02:38:46;101159.50;;;8.38;94.30
55757;BME280;41676;44.610;44.078;2023-10-31T02:43:47;101094.94;;;7.98;94.93
55757;BME280;41676;44.610;44.078;2023-10-31T02:48:47;101160.09;;;8.41;95.26
55757;BME280;41676;44.610;44.078;2023-10-31T02:53:48;101167.75;;;8.44;95.28
55757;BME280;41676;44.610;44.078;2023-10-31T02:58:49;101154.56;;;8.23;95.24
55757;BME280;41676;44.610;44.078;2023-10-31T03:03:49;101135.41;;;8.10;95.25
55757;BME280;41676;44.610;44.078;2023-10-31T03:08:50;101129.84;;;8.13;95.89
55757;BME280;41676;44.610;44.078;2023-10-31T03:13:52;101098.72;;;7.96;95.89
55757;BME280;41676;44.610;44.078;2023-10-31T03:18:56;101126.38;;;8.22;95.50
55757;BME280;41676;44.610;44.078;2023-10-31T03:23:57;101084.69;;;7.74;95.03
55757;BME280;41676;44.610;44.078;2023-10-31T03:28:58;101162.56;;;8.12;94.60
55757;BME280;41676;44.610;44.078;2023-10-31T03:33:59;101158.72;;;7.95;94.75
55757;BME280;41676;44.610;44.078;2023-10-31T03:38:59;101151.72;;;7.85;95.03
55757;BME280;41676;44.610;44.078;2023-10-31T03:44:00;101098.06;;;7.52;94.70
55757;BME280;41676;44.610;44.078;2023-10-31T03:49:01;101093.59;;;7.52;94.69
55757;BME280;41676;44.610;44.078;2023-10-31T03:54:02;101169.72;;;7.91;94.08
55757;BME280;41676;44.610;44.078;2023-10-31T03:59:03;101174.41;;;8.08;94.80
55757;BME280;41676;44.610;44.078;2023-10-31T04:04:04;101174.09;;;8.32;94.42
55757;BME280;41676;44.610;44.078;2023-10-31T04:09:05;101131.25;;;8.17;93.97
55757;BME280;41676;44.610;44.078;2023-10-31T04:14:05;101192.91;;;8.69;94.24
55757;BME280;41676;44.610;44.078;2023-10-31T04:19:06;101214.22;;;9.08;93.72
55757;BME280;41676;44.610;44.078;2023-10-31T04:24:07;101205.69;;;9.05;92.82
55757;BME280;41676;44.610;44.078;2023-10-31T04:29:08;101156.13;;;8.76;92.63
55757;BME280;41676;44.610;44.078;2023-10-31T04:34:09;101218.28;;;9.12;92.28
55757;BME280;41676;44.610;44.078;2023-10-31T04:39:09;101164.38;;;8.83;92.20
55757;BME280;41676;44.610;44.078;2023-10-31T04:44:10;101187.00;;;8.97;92.25
55757;BME280;41676;44.610;44.078;2023-10-31T04:49:11;101228.19;;;9.30;91.98
55757;BME280;41676;44.610;44.078;2023-10-31T04:54:12;101222.22;;;9.37;92.19
55757;BME280;41676;44.610;44.078;2023-10-31T04:59:12;101209.91;;;9.66;91.98
55757;BME280;41676;44.610;44.078;2023-10-31T05:04:13;101152.00;;;9.61;91.60
55757;BME280;41676;44.610;44.078;2023-10-31T05:09:14;101210.66;;;10.24;91.55
55757;BME280;41676;44.610;44.078;2023-10-31T05:14:15;101214.78;;;10.46;91.33
55757;BME280;41676;44.610;44.078;2023-10-31T05:19:15;101145.94;;;10.25;91.57
55757;BME280;41676;44.610;44.078;2023-10-31T05:24:50;101206.13;;;11.00;94.04
55757;BME280;41676;44.610;44.078;2023-10-31T05:29:51;101188.44;;;11.08;91.61
55757;BME280;41676;44.610;44.078;2023-10-31T05:34:52;101191.72;;;11.20;92.33
55757;BME280;41676;44.610;44.078;2023-10-31T05:39:53;101185.19;;;11.32;92.79
55757;BME280;41676;44.610;44.078;2023-10-31T05:44:54;101207.00;;;11.54;94.14
55757;BME280;41676;44.610;44.078;2023-10-31T05:49:55;101140.44;;;11.28;95.15
55757;BME280;41676;44.610;44.078;2023-10-31T05:54:56;101210.00;;;11.77;95.83
55757;BME280;41676;44.610;44.078;2023-10-31T05:59:58;101197.22;;;11.80;96.83
55757;BME280;41676;44.610;44.078;2023-10-31T06:04:59;101189.72;;;11.76;97.83
55757;BME280;41676;44.610;44.078;2023-10-31T06:10:00;101202.84;;;11.77;98.55
55757;BME280;41676;44.610;44.078;2023-10-31T06:15:01;101192.31;;;11.85;98.75
55757;BME280;41676;44.610;44.078;2023-10-31T06:20:02;101151.56;;;11.67;99.13
55757;BME280;41676;44.610;44.078;2023-10-31T06:25:03;101186.44;;;12.08;98.90
55757;BME280;41676;44.610;44.078;2023-10-31T06:30:04;101200.53;;;12.26;98.24
55757;BME280;41676;44.610;44.078;2023-10-31T06:35:06;101168.22;;;12.21;98.31
55757;BME280;41676;44.610;44.078;2023-10-31T06:40:07;101193.00;;;12.48;98.14
55757;BME280;41676;44.610;44.078;2023-10-31T06:45:08;101147.25;;;12.26;97.66
55757;BME280;41676;44.610;44.078;2023-10-31T06:50:09;101198.31;;;12.82;97.59
55757;BME280;41676;44.610;44.078;2023-10-31T06:55:10;101200.38;;;13.05;96.36
55757;BME280;41676;44.610;44.078;2023-10-31T07:00:11;101159.19;;;12.99;95.55
55757;BME280;41676;44.610;44.078;2023-10-31T07:05:12;101192.63;;;13.44;94.55
55757;BME280;41676;44.610;44.078;2023-10-31T07:10:13;101185.97;;;13.56;94.83
55757;BME280;41676;44.610;44.078;2023-10-31T07:15:14;101187.13;;;13.70;94.31
55757;BME280;41676;44.610;44.078;2023-10-31T07:20:14;101183.69;;;14.25;93.27
55757;BME280;41676;44.610;44.078;2023-10-31T07:25:15;101161.72;;;14.54;91.49
55757;BME280;41676;44.610;44.078;2023-10-31T07:30:16;101168.56;;;14.88;90.26
55757;BME280;41676;44.610;44.078;2023-10-31T07:35:17;101138.03;;;15.05;88.96
55757;BME280;41676;44.610;44.078;2023-10-31T07:40:17;101118.84;;;15.40;87.02
55757;BME280;41676;44.610;44.078;2023-10-31T07:45:18;101163.34;;;16.02;85.81
55757;BME280;41676;44.610;44.078;2023-10-31T07:50:19;101153.53;;;16.24;84.19
55757;BME280;41676;44.610;44.078;2023-10-31T07:55:19;101136.16;;;16.49;83.58
55757;BME280;41676;44.610;44.078;2023-10-31T08:00:20;101121.00;;;16.78;82.04
55757;BME280;41676;44.610;44.078;2023-10-31T08:05:22;101125.72;;;17.12;80.64
55757;BME280;41676;44.610;44.078;2023-10-31T08:10:22;101121.88;;;17.21;79.77
55757;BME280;41676;44.610;44.078;2023-10-31T08:15:23;101003.91;;;16.70;78.97
55757;BME280;41676;44.610;44.078;2023-10-31T08:20:24;101109.13;;;17.79;77.54
55757;BME280;41676;44.610;44.078;2023-10-31T08:25:25;101092.19;;;18.14;76.82
55757;BME280;41676;44.610;44.078;2023-10-31T08:30:25;101072.00;;;18.38;75.70
55757;BME280;41676;44.610;44.078;2023-10-31T08:35:26;101064.88;;;18.78;74.52
55757;BME280;41676;44.610;44.078;2023-10-31T08:40:27;101052.47;;;18.90;73.08
55757;BME280;41676;44.610;44.078;2023-10-31T08:45:28;101059.31;;;19.20;72.13
55757;BME280;41676;44.610;44.078;2023-10-31T08:50:28;101023.06;;;19.29;71.21
55757;BME280;41676;44.610;44.078;2023-10-31T08:55:29;101039.00;;;19.44;70.55
55757;BME280;41676;44.610;44.078;2023-10-31T09:00:30;101030.50;;;19.53;69.66
55757;BME280;41676;44.610;44.078;2023-10-31T09:05:30;101022.78;;;19.77;68.61
55757;BME280;41676;44.610;44.078;2023-10-31T09:10:33;101006.75;;;20.02;67.54
55757;BME280;41676;44.610;44.078;2023-10-31T09:15:34;100948.94;;;19.84;66.82
55757;BME280;41676;44.610;44.078;2023-10-31T09:20:34;100988.13;;;20.32;66.45
55757;BME280;41676;44.610;44.078;2023-10-31T09:25:35;100974.53;;;20.45;65.88
55757;BME280;41676;44.610;44.078;2023-10-31T09:30:36;100951.06;;;20.46;65.11
55757;BME280;41676;44.610;44.078;2023-10-31T09:35:37;100965.63;;;20.77;64.49
55757;BME280;41676;44.610;44.078;2023-10-31T09:40:38;100963.22;;;21.12;63.06
55757;BME280;41676;44.610;44.078;2023-10-31T09:45:39;100950.09;;;21.40;62.09
55757;BME280;41676;44.610;44.078;2023-10-31T09:50:41;100947.06;;;21.67;61.55
55757;BME280;41676;44.610;44.078;2023-10-31T09:55:42;100948.13;;;21.84;60.63
55757;BME280;41676;44.610;44.078;2023-10-31T10:00:43;100934.44;;;22.09;60.06
55757;BME280;41676;44.610;44.078;2023-10-31T10:05:44;100926.56;;;22.08;59.46
55757;BME280;41676;44.610;44.078;2023-10-31T10:10:46;100927.13;;;22.28;58.33
55757;BME280;41676;44.610;44.078;2023-10-31T10:15:48;100923.97;;;22.43;56.16
55757;BME280;41676;44.610;44.078;2023-10-31T10:21:01;100937.81;;;22.65;53.73
55757;BME280;41676;44.610;44.078;2023-10-31T10:26:03;100856.75;;;22.28;53.75
55757;BME280;41676;44.610;44.078;2023-10-31T10:31:04;100932.75;;;22.92;52.90
55757;BME280;41676;44.610;44.078;2023-10-31T10:36:09;100923.00;;;23.03;50.31
55757;BME280;41676;44.610;44.078;2023-10-31T10:41:12;100912.28;;;22.96;49.73
55757;BME280;41676;44.610;44.078;2023-10-31T10:46:17;100925.22;;;23.06;48.44
55757;BME280;41676;44.610;44.078;2023-10-31T10:51:25;100911.59;;;23.13;47.82
55757;BME280;41676;44.610;44.078;2023-10-31T10:56:39;100906.63;;;23.21;46.06
55757;BME280;41676;44.610;44.078;2023-10-31T11:01:42;100924.66;;;23.28;45.28
55757;BME280;41676;44.610;44.078;2023-10-31T11:06:47;100906.03;;;23.19;45.44
55757;BME280;41676;44.610;44.078;2023-10-31T11:11:48;100902.38;;;23.26;45.18
55757;BME280;41676;44.610;44.078;2023-10-31T11:16:55;100852.09;;;22.83;43.95
55757;BME280;41676;44.610;44.078;2023-10-31T11:22:05;100856.09;;;22.68;42.89
55757;BME280;41676;44.610;44.078;2023-10-31T11:27:07;100905.81;;;22.97;44.76
55757;BME280;41676;44.610;44.078;2023-10-31T11:32:09;100881.03;;;22.70;44.36
55757;BME280;41676;44.610;44.078;2023-10-31T11:37:32;100904.25;;;22.90;44.30
55757;BME280;41676;44.610;44.078;2023-10-31T11:42:36;100900.00;;;22.59;46.92
55757;BME280;41676;44.610;44.078;2023-10-31T11:47:50;100891.28;;;22.45;47.30
55757;BME280;41676;44.610;44.078;2023-10-31T11:53:02;100890.78;;;22.36;47.95
55757;BME280;41676;44.610;44.078;2023-10-31T11:58:21;100886.06;;;22.20;48.32
55757;BME280;41676;44.610;44.078;2023-10-31T12:03:22;100890.22;;;22.16;49.26
55757;BME280;41676;44.610;44.078;2023-10-31T12:08:30;100889.22;;;21.98;49.38
55757;BME280;41676;44.610;44.078;2023-10-31T12:13:31;100888.72;;;21.78;50.01
55757;BME280;41676;44.610;44.078;2023-10-31T12:18:35;100893.09;;;21.60;50.64
55757;BME280;41676;44.610;44.078;2023-10-31T12:23:36;100878.19;;;21.33;51.78
55757;BME280;41676;44.610;44.078;2023-10-31T12:28:37;100880.69;;;21.34;52.35
55757;BME280;41676;44.610;44.078;2023-10-31T12:33:38;100887.06;;;21.22;52.70
55757;BME280;41676;44.610;44.078;2023-10-31T12:38:39;100883.38;;;20.97;53.67
55757;BME280;41676;44.610;44.078;2023-10-31T12:43:40;100886.72;;;20.74;54.29
55757;BME280;41676;44.610;44.078;2023-10-31T12:48:41;100882.53;;;20.54;55.03
55757;BME280;41676;44.610;44.078;2023-10-31T12:53:41;100857.06;;;20.18;56.24
55757;BME280;41676;44.610;44.078;2023-10-31T12:58:42;100828.69;;;19.83;57.24
55757;BME280;41676;44.610;44.078;2023-10-31T13:03:49;100886.66;;;19.99;59.59
55757;BME280;41676;44.610;44.078;2023-10-31T13:08:51;100830.91;;;19.48;60.07
55757;BME280;41676;44.610;44.078;2023-10-31T13:13:52;100856.84;;;19.43;61.48
55757;BME280;41676;44.610;44.078;2023-10-31T13:18:53;100880.53;;;19.27;63.10
55757;BME280;41676;44.610;44.078;2023-10-31T13:23:54;100888.88;;;19.06;64.31
55757;BME280;41676;44.610;44.078;2023-10-31T13:28:55;100782.53;;;18.17;65.68
55757;BME280;41676;44.610;44.078;2023-10-31T13:33:56;100897.59;;;18.61;67.10
55757;BME280;41676;44.610;44.078;2023-10-31T13:38:57;100904.00;;;18.34;68.66
55757;BME280;41676;44.610;44.078;2023-10-31T13:43:58;100903.13;;;18.13;69.96
55757;BME280;41676;44.610;44.078;2023-10-31T13:48:59;100884.44;;;17.85;71.10
55757;BME280;41676;44.610;44.078;2023-10-31T13:54:00;100890.03;;;17.84;71.95
55757;BME280;41676;44.610;44.078;2023-10-31T13:59:00;100876.91;;;17.61;72.41
55757;BME280;41676;44.610;44.078;2023-10-31T14:04:01;100873.84;;;17.29;73.39
55757;BME280;41676;44.610;44.078;2023-10-31T14:09:02;100900.75;;;17.01;74.07
55757;BME280;41676;44.610;44.078;2023-10-31T14:14:05;100908.66;;;16.81;75.90
55757;BME280;41676;44.610;44.078;2023-10-31T14:19:14;100884.97;;;16.63;76.21
55757;BME280;41676;44.610;44.078;2023-10-31T14:24:16;100898.34;;;16.35;76.78
55757;BME280;41676;44.610;44.078;2023-10-31T14:29:17;100906.13;;;16.08;77.87
55757;BME280;41676;44.610;44.078;2023-10-31T14:34:18;100909.53;;;15.81;79.05
55757;BME280;41676;44.610;44.078;2023-10-31T14:39:19;100906.41;;;15.77;79.57
55757;BME280;41676;44.610;44.078;2023-10-31T14:44:20;100914.81;;;15.59;79.95
55757;BME280;41676;44.610;44.078;2023-10-31T14:49:21;100916.13;;;15.48;80.72
55757;BME280;41676;44.610;44.078;2023-10-31T14:54:22;100919.81;;;15.18;81.71
55757;BME280;41676;44.610;44.078;2023-10-31T14:59:23;100903.38;;;14.91;82.69
55757;BME280;41676;44.610;44.078;2023-10-31T15:04:23;100855.38;;;14.37;83.66
55757;BME280;41676;44.610;44.078;2023-10-31T15:09:24;100928.47;;;14.52;84.56
55757;BME280;41676;44.610;44.078;2023-10-31T15:14:25;100934.38;;;14.39;84.86
55757;BME280;41676;44.610;44.078;2023-10-31T15:19:26;100903.50;;;14.14;85.49
55757;BME280;41676;44.610;44.078;2023-10-31T15:24:26;100929.28;;;14.30;85.77
55757;BME280;41676;44.610;44.078;2023-10-31T15:29:30;100922.94;;;14.00;85.51
55757;BME280;41676;44.610;44.078;2023-10-31T15:34:31;100940.69;;;13.92;86.22
55757;BME280;41676;44.610;44.078;2023-10-31T15:39:32;100881.66;;;13.48;87.20
55757;BME280;41676;44.610;44.078;2023-10-31T15:44:36;100933.66;;;13.60;88.15
55757;BME280;41676;44.610;44.078;2023-10-31T15:49:38;100934.69;;;13.51;87.78
55757;BME280;41676;44.610;44.078;2023-10-31T15:54:39;100934.44;;;13.30;88.24
55757;BME280;41676;44.610;44.078;2023-10-31T15:59:40;100926.94;;;13.17;88.03
55757;BME280;41676;44.610;44.078;2023-10-31T16:04:41;100840.91;;;12.51;87.91
55757;BME280;41676;44.610;44.078;2023-10-31T16:09:42;100884.19;;;12.61;88.36
55757;BME280;41676;44.610;44.078;2023-10-31T16:14:43;100926.34;;;12.74;88.27
55757;BME280;41676;44.610;44.078;2023-10-31T16:19:43;100871.72;;;12.29;87.76
55757;BME280;41676;44.610;44.078;2023-10-31T16:24:45;100941.50;;;12.49;87.91
55757;BME280;41676;44.610;44.078;2023-10-31T16:29:47;100914.53;;;12.36;88.39
55757;BME280;41676;44.610;44.078;2023-10-31T16:34:48;100918.53;;;12.40;88.48
55757;BME280;41676;44.610;44.078;2023-10-31T16:39:52;100881.84;;;12.01;88.54
55757;BME280;41676;44.610;44.078;2023-10-31T16:44:52;100913.31;;;12.05;88.40
55757;BME280;41676;44.610;44.078;2023-10-31T16:49:53;100916.16;;;12.04;89.09
55757;BME280;41676;44.610;44.078;2023-10-31T16:54:54;100905.75;;;11.76;89.97
55757;BME280;41676;44.610;44.078;2023-10-31T16:59:55;100837.34;;;11.18;89.50
55757;BME280;41676;44.610;44.078;2023-10-31T17:04:56;100907.13;;;11.54;89.78
55757;BME280;41676;44.610;44.078;2023-10-31T17:09:57;100857.97;;;11.24;90.25
55757;BME280;41676;44.610;44.078;2023-10-31T17:14:59;100920.63;;;11.53;90.46
55757;BME280;41676;44.610;44.078;2023-10-31T17:20:00;100930.94;;;11.56;90.38
55757;BME280;41676;44.610;44.078;2023-10-31T17:25:01;100864.50;;;10.95;90.26
55757;BME280;41676;44.610;44.078;2023-10-31T17:30:06;100946.63;;;11.07;90.65
55757;BME280;41676;44.610;44.078;2023-10-31T17:35:07;100936.03;;;11.15;91.22
55757;BME280;41676;44.610;44.078;2023-10-31T17:40:10;100902.84;;;10.67;89.98
55757;BME280;41676;44.610;44.078;2023-10-31T17:45:11;100938.19;;;10.85;90.37
55757;BME280;41676;44.610;44.078;2023-10-31T17:50:12;100930.16;;;10.77;90.65
55757;BME280;41676;44.610;44.078;2023-10-31T17:55:13;100917.34;;;10.55;90.79
55757;BME280;41676;44.610;44.078;2023-10-31T18:00:19;100914.28;;;10.41;91.16
55757;BME280;41676;44.610;44.078;2023-10-31T18:05:20;100915.94;;;10.42;92.66
55757;BME280;41676;44.610;44.078;2023-10-31T18:10:21;100889.59;;;10.31;92.54
55757;BME280;41676;44.610;44.078;2023-10-31T18:15:22;100897.75;;;10.20;92.38
55757;BME280;41676;44.610;44.078;2023-10-31T18:20:24;100888.66;;;10.04;91.97
55757;BME280;41676;44.610;44.078;2023-10-31T18:25:25;100856.78;;;9.69;91.88
55757;BME280;41676;44.610;44.078;2023-10-31T18:30:26;100902.75;;;10.05;92.18
55757;BME280;41676;44.610;44.078;2023-10-31T18:35:27;100912.81;;;10.11;92.28
55757;BME280;41676;44.610;44.078;2023-10-31T18:40:29;100870.97;;;9.95;92.63
55757;BME280;41676;44.610;44.078;2023-10-31T18:45:32;100900.50;;;10.10;92.92
55757;BME280;41676;44.610;44.078;2023-10-31T18:50:33;100893.66;;;9.90;92.82
55757;BME280;41676;44.610;44.078;2023-10-31T18:55:39;100887.38;;;9.91;94.17
55757;BME280;41676;44.610;44.078;2023-10-31T19:00:40;100891.13;;;9.70;93.35
55757;BME280;41676;44.610;44.078;2023-10-31T19:05:41;100876.22;;;9.69;93.58
55757;BME280;41676;44.610;44.078;2023-10-31T19:10:42;100860.63;;;9.56;93.92
55757;BME280;41676;44.610;44.078;2023-10-31T19:15:47;100870.56;;;9.54;93.68
55757;BME280;41676;44.610;44.078;2023-10-31T19:20:48;100861.22;;;9.50;93.47
55757;BME280;41676;44.610;44.078;2023-10-31T19:25:50;100802.56;;;9.08;92.81
55757;BME280;41676;44.610;44.078;2023-10-31T19:30:51;100861.56;;;9.37;93.15
55757;BME280;41676;44.610;44.078;2023-10-31T19:35:51;100867.00;;;9.36;92.81
55757;BME280;41676;44.610;44.078;2023-10-31T19:40:52;100746.69;;;8.64;92.84
55757;BME280;41676;44.610;44.078;2023-10-31T19:45:53;100849.09;;;9.20;92.67
55757;BME280;41676;44.610;44.078;2023-10-31T19:50:54;100845.50;;;9.11;92.93
55757;BME280;41676;44.610;44.078;2023-10-31T19:55:54;100837.66;;;8.92;93.40
55757;BME280;41676;44.610;44.078;2023-10-31T20:00:55;100833.34;;;8.81;94.22
55757;BME280;41676;44.610;44.078;2023-10-31T20:05:56;100838.63;;;8.91;93.68
55757;BME280;41676;44.610;44.078;2023-10-31T20:10:57;100831.72;;;8.71;93.88
55757;BME280;41676;44.610;44.078;2023-10-31T20:15:57;100845.66;;;8.73;93.65
55757;BME280;41676;44.610;44.078;2023-10-31T20:20:58;100835.22;;;8.61;94.63
55757;BME280;41676;44.610;44.078;2023-10-31T20:25:59;100836.34;;;8.59;95.05
55757;BME280;41676;44.610;44.078;2023-10-31T20:30:59;100855.31;;;8.54;96.37
55757;BME280;41676;44.610;44.078;2023-10-31T20:36:00;100834.81;;;8.37;97.91
55757;BME280;41676;44.610;44.078;2023-10-31T20:41:01;100846.69;;;8.33;99.21
55757;BME280;41676;44.610;44.078;2023-10-31T20:46:02;100809.22;;;7.98;99.46
55757;BME280;41676;44.610;44.078;2023-10-31T20:51:03;100821.91;;;7.95;98.94
55757;BME280;41676;44.610;44.078;2023-10-31T20:56:04;100831.50;;;8.06;99.68
55757;BME280;41676;44.610;44.078;2023-10-31T21:01:06;100828.72;;;8.07;99.87
55757;BME280;41676;44.610;44.078;2023-10-31T21:06:09;100803.38;;;7.95;100.00
55757;BME280;41676;44.610;44.078;2023-10-31T21:11:09;100817.88;;;7.81;100.00
55757;BME280;41676;44.610;44.078;2023-10-31T21:16:10;100807.97;;;7.73;100.00
55757;BME280;41676;44.610;44.078;2023-10-31T21:21:12;100817.56;;;7.74;100.00
55757;BME280;41676;44.610;44.078;2023-10-31T21:26:12;100763.56;;;7.48;100.00
55757;BME280;41676;44.610;44.078;2023-10-31T21:31:13;100805.03;;;7.76;100.00
55757;BME280;41676;44.610;44.078;2023-10-31T21:36:14;100792.66;;;7.67;100.00
55757;BME280;41676;44.610;44.078;2023-10-31T21:41:15;100693.41;;;7.15;100.00
55757;BME280;41676;44.610;44.078;2023-10-31T21:46:16;100802.81;;;7.82;100.00
55757;BME280;41676;44.610;44.078;2023-10-31T21:51:16;100735.00;;;7.42;100.00
55757;BME280;41676;44.610;44.078;2023-10-31T21:56:17;100794.75;;;7.93;100.00
55757;BME280;41676;44.610;44.078;2023-10-31T22:01:18;100789.16;;;7.86;100.00
55757;BME280;41676;44.610;44.078;2023-10-31T22:06:19;100771.38;;;7.69;100.00
55757;BME280;41676;44.610;44.078;2023-10-31T22:11:20;100782.63;;;7.71;100.00
55757;BME280;41676;44.610;44.078;2023-10-31T22:16:21;100782.06;;;7.67;100.00
55757;BME280;41676;44.610;44.078;2023-10-31T22:21:22;100776.94;;;7.66;100.00
55757;BME280;41676;44.610;44.078;2023-10-31T22:26:23;100760.38;;;7.64;100.00
55757;BME280;41676;44.610;44.078;2023-10-31T22:31:24;100775.69;;;7.60;100.00
55757;BME280;41676;44.610;44.078;2023-10-31T22:36:25;100760.94;;;7.48;100.00
55757;BME280;41676;44.610;44.078;2023-10-31T22:41:25;100782.63;;;7.51;100.00
55757;BME280;41676;44.610;44.078;2023-10-31T22:46:26;100775.09;;;7.57;100.00
55757;BME280;41676;44.610;44.078;2023-10-31T22:51:27;100671.13;;;6.88;100.00
55757;BME280;41676;44.610;44.078;2023-10-31T22:56:28;100768.16;;;7.55;100.00
55757;BME280;41676;44.610;44.078;2023-10-31T23:01:30;100719.97;;;7.32;100.00
55757;BME280;41676;44.610;44.078;2023-10-31T23:06:31;100738.91;;;7.38;100.00
55757;BME280;41676;44.610;44.078;2023-10-31T23:11:32;100737.66;;;7.42;100.00
55757;BME280;41676;44.610;44.078;2023-10-31T23:16:33;100688.38;;;7.02;100.00
55757;BME280;41676;44.610;44.078;2023-10-31T23:21:33;100691.03;;;6.92;100.00
55757;BME280;41676;44.610;44.078;2023-10-31T23:26:34;100742.78;;;7.24;100.00
55757;BME280;41676;44.610;44.078;2023-10-31T23:31:35;100748.75;;;7.16;100.00
55757;BME280;41676;44.610;44.078;2023-10-31T23:36:36;100744.72;;;7.12;100.00
55757;BME280;41676;44.610;44.078;2023-10-31T23:41:36;100748.63;;;7.18;100.00
55757;BME280;41676;44.610;44.078;2023-10-31T23:46:37;100723.31;;;7.15;100.00
55757;BME280;41676;44.610;44.078;2023-10-31T23:51:38;100643.84;;;6.68;100.00
55757;BME280;41676;44.610;44.078;2023-10-31T23:56:38;100750.03;;;7.31;100.00
